PWSweather.com
Personal Weather Stations
Station Observations
DW7240
Park & Bond, Oshawa, ON L1J 4K8

Park & BondOshawa, ON L1J 4K8

Lat: 43.89689, Lon: -78.87396

Elevation: 358

Station Type: DAVIS VANTAGE PRO2 inc FARS

http://dw7240.com

Latest ConditionsUpdated 4:00:00 PM EST Sunday, Jan 19, 2020
Currently Today's Max Today's Min Today's Average
Temperature 18.3°F-7.6°C 34.5°F1.4°C 18.1°F-7.7°C 26.8°F-2.9°C
Dew Point 11.7°F-11.3°C 31.6°F-0.2°C 11.4°F-11.4°C 21.3°F-5.9°C
Winds 5.0 mph N8.0 kmh N 121.0 mph -194.7 kmh - - 58.8 mph 94.6 kmh
Wind Gusts 14.0 mph22.5 kmh 140.0 mph225.3 kmh - -
Humidity 75% 89% 71% 80%
Pressure 30.03 in1016.9 mb 30.03 in1016.9 mb 29.52 in999.7 mb -
Hour Temp Dew Point Humidity Winds Wind Gusts Pressure Precip Precip Rate Daily Precip Total
04:00 PM 18.3°F-7.6°C 11.7°F-11.3°C 75% 5.0 mph N8.0 kmh N 14.0 mph22.5 kmh 30.03 in1016.9 mb 0.00 in0.0 mm 0.00 in0.0 mm 0.00 in0.0 mm
03:45 PM 18.1°F-7.7°C 12.1°F-11.1°C 77% 5.0 mph N8.0 kmh N 13.0 mph20.9 kmh 30.02 in1016.6 mb 0.00 in0.0 mm 0.00 in0.0 mm 0.00 in0.0 mm
03:30 PM 18.4°F-7.6°C 12.4°F-10.9°C 77% 9.0 mph N14.5 kmh N 18.0 mph29.0 kmh 30.02 in1016.6 mb 0.00 in0.0 mm 0.00 in0.0 mm 0.00 in0.0 mm
03:15 PM 18.8°F-7.3°C 12.2°F-11.0°C 75% 9.0 mph N14.5 kmh N 18.0 mph29.0 kmh 30.00 in1015.9 mb 0.00 in0.0 mm 0.00 in0.0 mm 0.00 in0.0 mm
03:00 PM 18.8°F-7.3°C 11.9°F-11.2°C 74% 6.0 mph N9.7 kmh N 15.0 mph24.1 kmh 29.98 in1015.2 mb 0.00 in0.0 mm 0.00 in0.0 mm 0.00 in0.0 mm
02:45 PM 18.9°F-7.3°C 11.7°F-11.3°C 73% 7.0 mph N11.3 kmh N 18.0 mph29.0 kmh 29.98 in1015.2 mb 0.00 in0.0 mm 0.00 in0.0 mm 0.00 in0.0 mm
02:30 PM 19.2°F-7.1°C 12.0°F-11.1°C 73% 4.0 mph N6.4 kmh N 15.0 mph24.1 kmh 29.96 in1014.6 mb 0.00 in0.0 mm 0.00 in0.0 mm 0.00 in0.0 mm
02:15 PM 19.1°F-7.2°C 11.9°F-11.2°C 73% 6.0 mph N9.7 kmh N 15.0 mph24.1 kmh 29.96 in1014.6 mb 0.00 in0.0 mm 0.00 in0.0 mm 0.00 in0.0 mm
02:00 PM 19.4°F-7.0°C 11.8°F-11.2°C 72% 6.0 mph N9.7 kmh N 12.0 mph19.3 kmh 29.95 in1014.2 mb 0.00 in0.0 mm 0.00 in0.0 mm 0.00 in0.0 mm
01:45 PM 19.6°F-6.9°C 12.0°F-11.1°C 72% 7.0 mph N11.3 kmh N 20.0 mph32.2 kmh 29.94 in1013.9 mb 0.00 in0.0 mm 0.00 in0.0 mm 0.00 in0.0 mm
01:30 PM 19.5°F-6.9°C 11.6°F-11.3°C 71% 7.0 mph N11.3 kmh N 15.0 mph24.1 kmh 29.94 in1013.9 mb 0.00 in0.0 mm 0.00 in0.0 mm 0.00 in0.0 mm
01:15 PM 19.9°F-6.7°C 12.6°F-10.8°C 73% 4.0 mph NNW6.4 kmh NNW 13.0 mph20.9 kmh 29.93 in1013.5 mb 0.00 in0.0 mm 0.00 in0.0 mm 0.00 in0.0 mm
01:00 PM 19.2°F-7.1°C 11.6°F-11.3°C 72% 5.0 mph N8.0 kmh N 15.0 mph24.1 kmh 29.93 in1013.5 mb 0.00 in0.0 mm 0.00 in0.0 mm 0.00 in0.0 mm
12:45 PM 18.9°F-7.3°C 11.4°F-11.4°C 72% 6.0 mph N9.7 kmh N 17.0 mph27.4 kmh 29.93 in1013.5 mb 0.00 in0.0 mm 0.00 in0.0 mm 0.00 in0.0 mm
12:30 PM 18.7°F-7.4°C 11.8°F-11.2°C 74% 5.0 mph N8.0 kmh N 17.0 mph27.4 kmh 29.92 in1013.2 mb 0.00 in0.0 mm 0.00 in0.0 mm 0.00 in0.0 mm
12:15 PM 18.8°F-7.3°C 11.9°F-11.2°C 74% 8.0 mph N12.9 kmh N 16.0 mph25.7 kmh 29.92 in1013.2 mb 0.00 in0.0 mm 0.00 in0.0 mm 0.00 in0.0 mm
12:00 PM 19.2°F-7.1°C 12.6°F-10.8°C 75% 3.0 mph N4.8 kmh N 14.0 mph22.5 kmh 29.91 in1012.9 mb 0.00 in0.0 mm 0.00 in0.0 mm 0.00 in0.0 mm
11:45 AM 18.5°F-7.5°C 11.9°F-11.2°C 75% 6.0 mph N9.7 kmh N 16.0 mph25.7 kmh 29.90 in1012.5 mb 0.00 in0.0 mm 0.00 in0.0 mm 0.00 in0.0 mm
11:30 AM 18.9°F-7.3°C 12.3°F-10.9°C 75% 8.0 mph N12.9 kmh N 18.0 mph29.0 kmh 29.90 in1012.5 mb 0.00 in0.0 mm 0.00 in0.0 mm 0.00 in0.0 mm
11:15 AM 19.6°F-6.9°C 13.3°F-10.4°C 76% 6.0 mph N9.7 kmh N 17.0 mph27.4 kmh 29.90 in1012.5 mb 0.00 in0.0 mm 0.00 in0.0 mm 0.00 in0.0 mm
11:00 AM 20.0°F-6.7°C 13.3°F-10.4°C 75% 7.0 mph N11.3 kmh N 21.0 mph33.8 kmh 29.89 in1012.2 mb 0.00 in0.0 mm 0.00 in0.0 mm 0.00 in0.0 mm
10:45 AM 20.3°F-6.5°C 14.2°F-9.9°C 77% 10.0 mph N16.1 kmh N 25.0 mph40.2 kmh 29.88 in1011.9 mb 0.00 in0.0 mm 0.00 in0.0 mm 0.00 in0.0 mm
10:30 AM 21.7°F-5.7°C 15.6°F-9.1°C 77% 8.0 mph N12.9 kmh N 24.0 mph38.6 kmh 29.86 in1011.2 mb 0.00 in0.0 mm 0.00 in0.0 mm 0.00 in0.0 mm
10:15 AM 22.9°F-5.1°C 16.8°F-8.4°C 77% 8.0 mph N12.9 kmh N 21.0 mph33.8 kmh 29.84 in1010.5 mb 0.00 in0.0 mm 0.00 in0.0 mm 0.00 in0.0 mm
10:00 AM 23.2°F-4.9°C 17.4°F-8.1°C 78% 8.0 mph N12.9 kmh N 24.0 mph38.6 kmh 29.83 in1010.2 mb 0.00 in0.0 mm 0.00 in0.0 mm 0.00 in0.0 mm
09:45 AM 23.5°F-4.7°C 17.9°F-7.8°C 79% 9.0 mph N14.5 kmh N 22.0 mph35.4 kmh 29.82 in1009.8 mb 0.00 in0.0 mm 0.00 in0.0 mm 0.00 in0.0 mm
09:30 AM 23.9°F-4.5°C 18.6°F-7.4°C 80% 7.0 mph N11.3 kmh N 21.0 mph33.8 kmh 29.82 in1009.8 mb 0.00 in0.0 mm 0.00 in0.0 mm 0.00 in0.0 mm
09:15 AM 25.2°F-3.8°C 19.9°F-6.7°C 80% 22.0 mph N35.4 kmh N 136.0 mph218.9 kmh 29.81 in1009.5 mb 0.00 in0.0 mm 0.00 in0.0 mm 0.00 in0.0 mm
09:00 AM 26.1°F-3.3°C 20.5°F-6.4°C 79% 7.0 mph N11.3 kmh N 18.0 mph29.0 kmh 29.80 in1009.1 mb 0.00 in0.0 mm 0.00 in0.0 mm 0.00 in0.0 mm
08:45 AM 26.9°F-2.8°C 21.3°F-5.9°C 79% 10.0 mph NNW16.1 kmh NNW 23.0 mph37.0 kmh 29.79 in1008.8 mb 0.00 in0.0 mm 0.00 in0.0 mm 0.00 in0.0 mm
08:30 AM 27.2°F-2.7°C 21.5°F-5.8°C 79% 8.0 mph NW12.9 kmh NW 21.0 mph33.8 kmh 29.78 in1008.5 mb 0.00 in0.0 mm 0.00 in0.0 mm 0.00 in0.0 mm
08:15 AM 27.3°F-2.6°C 21.6°F-5.8°C 79% 9.0 mph NNW14.5 kmh NNW 40.0 mph64.4 kmh 29.77 in1008.1 mb 0.00 in0.0 mm 0.00 in0.0 mm 0.00 in0.0 mm
08:00 AM 27.6°F-2.4°C 21.9°F-5.6°C 79% 66.0 mph NNW106.2 kmh NNW 136.0 mph218.9 kmh 29.76 in1007.8 mb 0.00 in0.0 mm 0.00 in0.0 mm 0.00 in0.0 mm
07:45 AM 27.9°F-2.3°C 22.2°F-5.4°C 79% 31.0 mph NNW49.9 kmh NNW 127.0 mph204.4 kmh 29.75 in1007.5 mb 0.00 in0.0 mm 0.00 in0.0 mm 0.00 in0.0 mm
07:30 AM 28.2°F-2.1°C 22.2°F-5.4°C 78% 42.0 mph NNW67.6 kmh NNW 131.0 mph210.8 kmh 29.75 in1007.5 mb 0.00 in0.0 mm 0.00 in0.0 mm 0.00 in0.0 mm
07:15 AM 28.8°F-1.8°C 22.8°F-5.1°C 78% 62.0 mph NW99.8 kmh NW 139.0 mph223.7 kmh 29.74 in1007.1 mb 0.00 in0.0 mm 0.00 in0.0 mm 0.00 in0.0 mm
07:00 AM 29.0°F-1.7°C 23.0°F-5.0°C 78% 116.0 mph NW186.7 kmh NW 123.0 mph197.9 kmh 29.73 in1006.8 mb 0.00 in0.0 mm 0.00 in0.0 mm 0.00 in0.0 mm
06:45 AM 29.3°F-1.5°C 23.6°F-4.7°C 79% 114.0 mph NW183.5 kmh NW 138.0 mph222.1 kmh 29.71 in1006.1 mb 0.00 in0.0 mm 0.00 in0.0 mm 0.00 in0.0 mm
06:30 AM 29.6°F-1.3°C 23.9°F-4.5°C 79% 120.0 mph NNW193.1 kmh NNW 138.0 mph222.1 kmh 29.70 in1005.8 mb 0.00 in0.0 mm 0.00 in0.0 mm 0.00 in0.0 mm
06:15 AM 30.0°F-1.1°C 24.3°F-4.3°C 79% 118.0 mph NNW189.9 kmh NNW 137.0 mph220.5 kmh 29.69 in1005.4 mb 0.00 in0.0 mm 0.00 in0.0 mm 0.00 in0.0 mm
06:00 AM 30.4°F-0.9°C 24.7°F-4.1°C 79% 118.0 mph NW189.9 kmh NW 138.0 mph222.1 kmh 29.68 in1005.1 mb 0.00 in0.0 mm 0.00 in0.0 mm 0.00 in0.0 mm
05:45 AM 31.0°F-0.6°C 25.2°F-3.8°C 79% 118.0 mph NNW189.9 kmh NNW 138.0 mph222.1 kmh 29.68 in1005.1 mb 0.00 in0.0 mm 0.00 in0.0 mm 0.00 in0.0 mm
05:30 AM 31.5°F-0.3°C 25.7°F-3.5°C 79% 115.0 mph NNW185.1 kmh NNW 137.0 mph220.5 kmh 29.67 in1004.7 mb 0.00 in0.0 mm 0.00 in0.0 mm 0.00 in0.0 mm
05:15 AM 32.6°F0.3°C 26.8°F-2.9°C 79% 115.0 mph NNW185.1 kmh NNW 137.0 mph220.5 kmh 29.66 in1004.4 mb 0.00 in0.0 mm 0.00 in0.0 mm 0.00 in0.0 mm
05:00 AM 34.2°F1.2°C 28.4°F-2.0°C 79% 118.0 mph NW189.9 kmh NW 136.0 mph218.9 kmh 29.64 in1003.7 mb 0.00 in0.0 mm 0.00 in0.0 mm 0.00 in0.0 mm
04:45 AM 34.2°F1.2°C 28.7°F-1.8°C 80% 116.0 mph NW186.7 kmh NW 136.0 mph218.9 kmh 29.62 in1003.0 mb 0.00 in0.0 mm 0.00 in0.0 mm 0.00 in0.0 mm
04:30 AM 34.2°F1.2°C 29.3°F-1.5°C 82% 117.0 mph NW188.3 kmh NW 139.0 mph223.7 kmh 29.61 in1002.7 mb 0.00 in0.0 mm 0.00 in0.0 mm 0.00 in0.0 mm
04:15 AM 34.2°F1.2°C 29.9°F-1.2°C 84% 110.0 mph NW177.0 kmh NW 139.0 mph223.7 kmh 29.61 in1002.7 mb 0.00 in0.0 mm 0.00 in0.0 mm 0.00 in0.0 mm
04:00 AM 34.0°F1.1°C 30.3°F-0.9°C 86% 117.0 mph NW188.3 kmh NW 139.0 mph223.7 kmh 29.60 in1002.4 mb 0.00 in0.0 mm 0.00 in0.0 mm 0.00 in0.0 mm
03:45 AM 33.9°F1.1°C 30.4°F-0.9°C 87% 113.0 mph NW181.9 kmh NW 139.0 mph223.7 kmh 29.59 in1002.0 mb 0.00 in0.0 mm 0.00 in0.0 mm 0.00 in0.0 mm
03:30 AM 33.9°F1.1°C 30.4°F-0.9°C 87% 119.0 mph NW191.5 kmh NW 140.0 mph225.3 kmh 29.59 in1002.0 mb 0.00 in0.0 mm 0.00 in0.0 mm 0.00 in0.0 mm
03:15 AM 33.9°F1.1°C 30.7°F-0.7°C 88% 116.0 mph NW186.7 kmh NW 139.0 mph223.7 kmh 29.58 in1001.7 mb 0.00 in0.0 mm 0.00 in0.0 mm 0.00 in0.0 mm
03:00 AM 33.9°F1.1°C 30.7°F-0.7°C 88% 120.0 mph WNW193.1 kmh WNW 139.0 mph223.7 kmh 29.57 in1001.4 mb 0.00 in0.0 mm 0.00 in0.0 mm 0.00 in0.0 mm
02:45 AM 33.8°F1.0°C 30.6°F-0.8°C 88% 118.0 mph WNW189.9 kmh WNW 139.0 mph223.7 kmh 29.57 in1001.4 mb 0.00 in0.0 mm 0.00 in0.0 mm 0.00 in0.0 mm
02:30 AM 33.7°F0.9°C 30.5°F-0.8°C 88% 117.0 mph WNW188.3 kmh WNW 139.0 mph223.7 kmh 29.56 in1001.0 mb 0.00 in0.0 mm 0.00 in0.0 mm 0.00 in0.0 mm
02:15 AM 33.7°F0.9°C 30.5°F-0.8°C 88% 120.0 mph WNW193.1 kmh WNW 139.0 mph223.7 kmh 29.55 in1000.7 mb 0.00 in0.0 mm 0.00 in0.0 mm 0.00 in0.0 mm
02:00 AM 33.7°F0.9°C 30.5°F-0.8°C 88% 121.0 mph NW194.7 kmh NW 139.0 mph223.7 kmh 29.55 in1000.7 mb 0.00 in0.0 mm 0.00 in0.0 mm 0.00 in0.0 mm
01:45 AM 33.9°F1.1°C 30.7°F-0.7°C 88% 115.0 mph WNW185.1 kmh WNW 139.0 mph223.7 kmh 29.54 in1000.3 mb 0.00 in0.0 mm 0.00 in0.0 mm 0.00 in0.0 mm
01:30 AM 34.0°F1.1°C 30.8°F-0.7°C 88% 118.0 mph WNW189.9 kmh WNW 139.0 mph223.7 kmh 29.54 in1000.3 mb 0.00 in0.0 mm 0.00 in0.0 mm 0.00 in0.0 mm
01:15 AM 34.1°F1.2°C 30.9°F-0.6°C 88% 112.0 mph NW180.2 kmh NW 138.0 mph222.1 kmh 29.54 in1000.3 mb 0.00 in0.0 mm 0.00 in0.0 mm 0.00 in0.0 mm
01:00 AM 34.2°F1.2°C 31.0°F-0.6°C 88% 117.0 mph WNW188.3 kmh WNW 139.0 mph223.7 kmh 29.54 in1000.3 mb 0.00 in0.0 mm 0.00 in0.0 mm 0.00 in0.0 mm
12:45 AM 34.3°F1.3°C 31.1°F-0.5°C 88% 117.0 mph WNW188.3 kmh WNW 139.0 mph223.7 kmh 29.53 in1000.0 mb 0.00 in0.0 mm 0.00 in0.0 mm 0.00 in0.0 mm
12:30 AM 34.4°F1.3°C 31.2°F-0.4°C 88% 119.0 mph WNW191.5 kmh WNW 139.0 mph223.7 kmh 29.53 in1000.0 mb 0.00 in0.0 mm 0.00 in0.0 mm 0.00 in0.0 mm
12:15 AM 34.4°F1.3°C 31.2°F-0.4°C 88% 116.0 mph WNW186.7 kmh WNW 138.0 mph222.1 kmh 29.53 in1000.0 mb 0.00 in0.0 mm 0.00 in0.0 mm 0.00 in0.0 mm
12:00 AM 34.5°F1.4°C 31.6°F-0.2°C 89% 116.0 mph WNW186.7 kmh WNW 138.0 mph222.1 kmh 29.52 in999.7 mb 0.00 in0.0 mm 0.00 in0.0 mm 0.00 in0.0 mm